Summ, South Carolina
Current Conditions -  °F | °C
As of 7:55 AM on Sunday 21 Dec 2014 (Local Time) from KDYB Reporting Station
Overcast Overcast  
Wind Chill: 40°   Ceiling: 10000
Heat Index: 43°   Visibility: 10mi
Dew Point: 43°   Wind: 5mph
Humidity: 100%   Direction: 30°NNE
Pressure: 30.24"   Gusts: NA
Location:  32.9158°N, 80.2679°W
Report Text: KDYB 211255Z AUTO 03004KT 10SM OVC100 06/06 A3024 RMK AO1
Loading
Personal Weather Stations






























Interactive Weather Map New forecast layout! Learn more

10-Day Weather Forecast

Advertisements
Track Severe Weather on mobile